Stanton, Michigan
Current Conditions -  °F | °C
As of 2:13 AM on Saturday 25 Oct 2014 (Local Time) from KAMN Reporting Station
Moderate Fog Moderate Fog  
Wind Chill:   Ceiling: 300
Heat Index:   Visibility: 0.25mi
Dew Point:   Wind: 5mph
Humidity: 98%   Direction: 210°SSW
Pressure: 29.91"   Gusts: NA
Location:  43.29°N, 85.08°W
Report Text: KAMN 250613Z AUTO 21004KT 1/4SM FG OVC003 05/05 A2991 RMK AO2 T00500047
Loading
Personal Weather Stations






























Interactive Weather Map
Tropical Storm Tracking
New forecast layout! Learn more

10-Day Weather Forecast

Advertisements
Track Severe Weather on mobile